sensor_id;sensor_type;location;lat;lon;timestamp;temperature;humidity
68378;DHT22;55322;48.146;11.516;2024-03-23T00:53:14;10.83;65.85
68378;DHT22;55322;48.146;11.516;2024-03-23T00:55:43;10.88;65.24
68378;DHT22;55322;48.146;11.516;2024-03-23T00:58:09;10.96;65.65
68378;DHT22;55322;48.146;11.516;2024-03-23T01:00:35;10.90;65.43
68378;DHT22;55322;48.146;11.516;2024-03-23T01:03:00;10.93;65.10
68378;DHT22;55322;48.146;11.516;2024-03-23T01:05:26;11.00;65.13
68378;DHT22;55322;48.146;11.516;2024-03-23T01:07:51;10.99;64.97
68378;DHT22;55322;48.146;11.516;2024-03-23T01:10:17;10.99;65.06
68378;DHT22;55322;48.146;11.516;2024-03-23T01:12:42;11.02;65.22
68378;DHT22;55322;48.146;11.516;2024-03-23T01:15:08;11.00;65.56
68378;DHT22;55322;48.146;11.516;2024-03-23T01:17:33;11.04;64.70
68378;DHT22;55322;48.146;11.516;2024-03-23T01:19:59;11.14;65.04
68378;DHT22;55322;48.146;11.516;2024-03-23T01:22:24;11.17;64.26
68378;DHT22;55322;48.146;11.516;2024-03-23T01:24:50;11.14;64.60
68378;DHT22;55322;48.146;11.516;2024-03-23T01:27:15;11.13;64.85
68378;DHT22;55322;48.146;11.516;2024-03-23T01:29:41;11.00;65.52
68378;DHT22;55322;48.146;11.516;2024-03-23T01:32:06;10.92;65.66
68378;DHT22;55322;48.146;11.516;2024-03-23T01:34:32;10.97;64.86
68378;DHT22;55322;48.146;11.516;2024-03-23T01:36:57;10.99;64.58
68378;DHT22;55322;48.146;11.516;2024-03-23T01:39:23;10.96;65.71
68378;DHT22;55322;48.146;11.516;2024-03-23T01:41:49;10.90;65.36
68378;DHT22;55322;48.146;11.516;2024-03-23T01:44:15;10.79;66.41
68378;DHT22;55322;48.146;11.516;2024-03-23T01:46:41;10.79;66.25
68378;DHT22;55322;48.146;11.516;2024-03-23T01:49:07;10.69;66.63
68378;DHT22;55322;48.146;11.516;2024-03-23T01:51:34;10.72;66.72
68378;DHT22;55322;48.146;11.516;2024-03-23T01:54:02;10.68;66.75
68378;DHT22;55322;48.146;11.516;2024-03-23T01:56:32;10.60;67.11
68378;DHT22;55322;48.146;11.516;2024-03-23T01:59:04;10.56;67.22
68378;DHT22;55322;48.146;11.516;2024-03-23T02:01:30;10.50;67.76
68378;DHT22;55322;48.146;11.516;2024-03-23T02:03:57;10.48;67.76
68378;DHT22;55322;48.146;11.516;2024-03-23T02:06:24;10.42;68.36
68378;DHT22;55322;48.146;11.516;2024-03-23T02:08:49;10.39;68.41
68378;DHT22;55322;48.146;11.516;2024-03-23T02:11:15;10.32;68.14
68378;DHT22;55322;48.146;11.516;2024-03-23T02:13:40;10.28;68.24
68378;DHT22;55322;48.146;11.516;2024-03-23T02:16:06;10.19;69.39
68378;DHT22;55322;48.146;11.516;2024-03-23T02:18:32;10.05;70.00
68378;DHT22;55322;48.146;11.516;2024-03-23T02:20:58;9.91;70.32
68378;DHT22;55322;48.146;11.516;2024-03-23T02:23:23;9.81;70.66
68378;DHT22;55322;48.146;11.516;2024-03-23T02:25:50;9.67;71.25
68378;DHT22;55322;48.146;11.516;2024-03-23T02:28:15;9.57;72.45
68378;DHT22;55322;48.146;11.516;2024-03-23T02:30:41;9.51;72.39
68378;DHT22;55322;48.146;11.516;2024-03-23T02:33:06;9.48;72.27
68378;DHT22;55322;48.146;11.516;2024-03-23T02:35:32;9.61;71.66
68378;DHT22;55322;48.146;11.516;2024-03-23T02:37:58;9.58;72.03
68378;DHT22;55322;48.146;11.516;2024-03-23T02:40:24;9.57;71.78
68378;DHT22;55322;48.146;11.516;2024-03-23T02:42:49;9.65;71.14
68378;DHT22;55322;48.146;11.516;2024-03-23T02:45:15;9.71;71.50
68378;DHT22;55322;48.146;11.516;2024-03-23T02:47:40;9.63;72.13
68378;DHT22;55322;48.146;11.516;2024-03-23T02:50:06;9.51;72.84
68378;DHT22;55322;48.146;11.516;2024-03-23T02:52:32;9.43;73.22
68378;DHT22;55322;48.146;11.516;2024-03-23T02:54:58;9.40;73.57
68378;DHT22;55322;48.146;11.516;2024-03-23T02:57:23;9.40;73.10
68378;DHT22;55322;48.146;11.516;2024-03-23T02:59:49;9.43;72.82
68378;DHT22;55322;48.146;11.516;2024-03-23T03:02:15;9.46;72.65
68378;DHT22;55322;48.146;11.516;2024-03-23T03:04:41;9.44;73.30
68378;DHT22;55322;48.146;11.516;2024-03-23T03:07:06;9.36;73.99
68378;DHT22;55322;48.146;11.516;2024-03-23T03:09:32;9.29;73.72
68378;DHT22;55322;48.146;11.516;2024-03-23T03:11:58;9.24;73.50
68378;DHT22;55322;48.146;11.516;2024-03-23T03:14:23;9.19;74.41
68378;DHT22;55322;48.146;11.516;2024-03-23T03:16:49;9.10;74.61
68378;DHT22;55322;48.146;11.516;2024-03-23T03:19:14;9.02;75.16
68378;DHT22;55322;48.146;11.516;2024-03-23T03:21:42;9.03;75.29
68378;DHT22;55322;48.146;11.516;2024-03-23T03:24:07;9.03;75.44
68378;DHT22;55322;48.146;11.516;2024-03-23T03:26:33;9.03;75.52
68378;DHT22;55322;48.146;11.516;2024-03-23T03:28:58;8.95;75.88
68378;DHT22;55322;48.146;11.516;2024-03-23T03:31:24;8.88;76.23
68378;DHT22;55322;48.146;11.516;2024-03-23T03:33:49;8.86;76.05
68378;DHT22;55322;48.146;11.516;2024-03-23T03:36:16;9.03;75.13
68378;DHT22;55322;48.146;11.516;2024-03-23T03:38:41;9.06;75.25
68378;DHT22;55322;48.146;11.516;2024-03-23T03:41:07;9.12;74.78
68378;DHT22;55322;48.146;11.516;2024-03-23T03:43:32;9.22;74.04
68378;DHT22;55322;48.146;11.516;2024-03-23T03:45:59;9.30;74.24
68378;DHT22;55322;48.146;11.516;2024-03-23T03:48:24;9.29;74.11
68378;DHT22;55322;48.146;11.516;2024-03-23T03:50:50;9.29;74.46
68378;DHT22;55322;48.146;11.516;2024-03-23T03:53:16;9.27;74.61
68378;DHT22;55322;48.146;11.516;2024-03-23T03:55:41;9.19;74.66
68378;DHT22;55322;48.146;11.516;2024-03-23T03:58:07;9.15;75.01
68378;DHT22;55322;48.146;11.516;2024-03-23T04:00:32;9.06;75.40
68378;DHT22;55322;48.146;11.516;2024-03-23T04:02:58;9.08;75.12
68378;DHT22;55322;48.146;11.516;2024-03-23T04:05:23;9.09;75.02
68378;DHT22;55322;48.146;11.516;2024-03-23T04:07:49;9.16;74.39
68378;DHT22;55322;48.146;11.516;2024-03-23T04:10:14;9.30;73.93
68378;DHT22;55322;48.146;11.516;2024-03-23T04:12:41;9.36;73.64
68378;DHT22;55322;48.146;11.516;2024-03-23T04:15:06;9.37;73.28
68378;DHT22;55322;48.146;11.516;2024-03-23T04:17:32;9.44;72.81
68378;DHT22;55322;48.146;11.516;2024-03-23T04:20:00;9.42;73.01
68378;DHT22;55322;48.146;11.516;2024-03-23T04:22:26;9.36;73.13
68378;DHT22;55322;48.146;11.516;2024-03-23T04:24:55;9.32;73.58
68378;DHT22;55322;48.146;11.516;2024-03-23T04:27:22;9.24;73.75
68378;DHT22;55322;48.146;11.516;2024-03-23T04:29:51;9.23;73.86
68378;DHT22;55322;48.146;11.516;2024-03-23T04:32:17;9.18;74.25
68378;DHT22;55322;48.146;11.516;2024-03-23T04:34:43;9.20;73.68
68378;DHT22;55322;48.146;11.516;2024-03-23T04:37:09;9.20;73.66
68378;DHT22;55322;48.146;11.516;2024-03-23T04:39:37;9.20;73.79
68378;DHT22;55322;48.146;11.516;2024-03-23T04:42:04;9.34;72.95
68378;DHT22;55322;48.146;11.516;2024-03-23T04:44:29;9.36;72.68
68378;DHT22;55322;48.146;11.516;2024-03-23T04:46:56;9.27;73.54
68378;DHT22;55322;48.146;11.516;2024-03-23T04:49:22;9.22;74.01
68378;DHT22;55322;48.146;11.516;2024-03-23T04:51:47;9.23;73.30
68378;DHT22;55322;48.146;11.516;2024-03-23T04:54:13;9.33;72.52
68378;DHT22;55322;48.146;11.516;2024-03-23T04:56:38;9.34;73.07
68378;DHT22;55322;48.146;11.516;2024-03-23T04:59:04;9.39;72.58
68378;DHT22;55322;48.146;11.516;2024-03-23T05:01:33;9.51;71.34
68378;DHT22;55322;48.146;11.516;2024-03-23T05:03:58;9.53;72.19
68378;DHT22;55322;48.146;11.516;2024-03-23T05:06:25;9.48;72.90
68378;DHT22;55322;48.146;11.516;2024-03-23T05:08:51;9.48;72.52
68378;DHT22;55322;48.146;11.516;2024-03-23T05:11:17;9.46;73.25
68378;DHT22;55322;48.146;11.516;2024-03-23T05:13:42;9.46;72.90
68378;DHT22;55322;48.146;11.516;2024-03-23T05:16:08;9.48;72.60
68378;DHT22;55322;48.146;11.516;2024-03-23T05:18:34;9.54;72.04
68378;DHT22;55322;48.146;11.516;2024-03-23T05:21:00;9.67;70.29
68378;DHT22;55322;48.146;11.516;2024-03-23T05:23:26;9.77;70.21
68378;DHT22;55322;48.146;11.516;2024-03-23T05:25:52;9.77;70.92
68378;DHT22;55322;48.146;11.516;2024-03-23T05:28:18;9.75;71.07
68378;DHT22;55322;48.146;11.516;2024-03-23T05:30:49;9.83;71.21
68378;DHT22;55322;48.146;11.516;2024-03-23T05:33:15;9.93;70.15
68378;DHT22;55322;48.146;11.516;2024-03-23T05:35:40;10.04;69.93
68378;DHT22;55322;48.146;11.516;2024-03-23T05:38:06;10.15;70.22
68378;DHT22;55322;48.146;11.516;2024-03-23T05:40:31;10.42;68.36
68378;DHT22;55322;48.146;11.516;2024-03-23T05:42:57;10.60;68.37
68378;DHT22;55322;48.146;11.516;2024-03-23T05:45:22;10.84;67.05
68378;DHT22;55322;48.146;11.516;2024-03-23T05:47:48;11.19;66.17
68378;DHT22;55322;48.146;11.516;2024-03-23T05:50:14;11.54;65.58
68378;DHT22;55322;48.146;11.516;2024-03-23T05:52:39;12.08;63.18
68378;DHT22;55322;48.146;11.516;2024-03-23T05:55:05;12.53;61.52
68378;DHT22;55322;48.146;11.516;2024-03-23T05:57:31;12.62;60.81
68378;DHT22;55322;48.146;11.516;2024-03-23T05:59:57;12.89;59.96
68378;DHT22;55322;48.146;11.516;2024-03-23T06:02:23;13.28;59.01
68378;DHT22;55322;48.146;11.516;2024-03-23T06:04:49;13.74;56.97
68378;DHT22;55322;48.146;11.516;2024-03-23T06:07:14;13.99;57.30
68378;DHT22;55322;48.146;11.516;2024-03-23T06:09:43;14.12;56.71
68378;DHT22;55322;48.146;11.516;2024-03-23T06:12:08;14.18;56.51
68378;DHT22;55322;48.146;11.516;2024-03-23T06:14:34;14.50;55.42
68378;DHT22;55322;48.146;11.516;2024-03-23T06:17:00;14.60;55.29
68378;DHT22;55322;48.146;11.516;2024-03-23T06:19:27;14.88;55.16
68378;DHT22;55322;48.146;11.516;2024-03-23T06:21:53;15.34;53.30
68378;DHT22;55322;48.146;11.516;2024-03-23T06:24:22;14.87;53.01
68378;DHT22;55322;48.146;11.516;2024-03-23T06:26:49;14.47;55.24
68378;DHT22;55322;48.146;11.516;2024-03-23T06:29:15;14.13;56.80
68378;DHT22;55322;48.146;11.516;2024-03-23T06:31:40;13.86;56.28
68378;DHT22;55322;48.146;11.516;2024-03-23T06:34:06;13.62;56.16
68378;DHT22;55322;48.146;11.516;2024-03-23T06:36:31;13.53;55.82
68378;DHT22;55322;48.146;11.516;2024-03-23T06:38:57;13.58;57.41
68378;DHT22;55322;48.146;11.516;2024-03-23T06:41:23;13.55;57.22
68378;DHT22;55322;48.146;11.516;2024-03-23T06:43:48;13.59;58.64
68378;DHT22;55322;48.146;11.516;2024-03-23T06:46:13;13.62;57.95
68378;DHT22;55322;48.146;11.516;2024-03-23T06:48:39;13.59;56.81
68378;DHT22;55322;48.146;11.516;2024-03-23T06:51:04;13.69;58.48
68378;DHT22;55322;48.146;11.516;2024-03-23T06:53:31;13.78;58.91
68378;DHT22;55322;48.146;11.516;2024-03-23T06:55:57;13.94;57.16
68378;DHT22;55322;48.146;11.516;2024-03-23T06:58:24;13.99;56.88
68378;DHT22;55322;48.146;11.516;2024-03-23T07:00:50;14.22;58.54
68378;DHT22;55322;48.146;11.516;2024-03-23T07:03:16;14.50;56.59
68378;DHT22;55322;48.146;11.516;2024-03-23T07:05:42;14.56;57.15
68378;DHT22;55322;48.146;11.516;2024-03-23T07:08:08;14.53;57.35
68378;DHT22;55322;48.146;11.516;2024-03-23T07:10:34;14.59;57.66
68378;DHT22;55322;48.146;11.516;2024-03-23T07:13:00;14.63;58.54
68378;DHT22;55322;48.146;11.516;2024-03-23T07:15:26;14.61;57.96
68378;DHT22;55322;48.146;11.516;2024-03-23T07:17:51;14.59;57.77
68378;DHT22;55322;48.146;11.516;2024-03-23T07:20:17;14.56;58.43
68378;DHT22;55322;48.146;11.516;2024-03-23T07:22:42;14.60;59.06
68378;DHT22;55322;48.146;11.516;2024-03-23T07:25:08;14.53;59.52
68378;DHT22;55322;48.146;11.516;2024-03-23T07:27:33;14.42;58.41
68378;DHT22;55322;48.146;11.516;2024-03-23T07:29:59;14.30;58.63
68378;DHT22;55322;48.146;11.516;2024-03-23T07:32:26;14.30;59.50
68378;DHT22;55322;48.146;11.516;2024-03-23T07:34:52;14.23;59.26
68378;DHT22;55322;48.146;11.516;2024-03-23T07:37:17;14.09;60.69
68378;DHT22;55322;48.146;11.516;2024-03-23T07:39:43;13.89;65.04
68378;DHT22;55322;48.146;11.516;2024-03-23T07:42:08;13.54;67.85
68378;DHT22;55322;48.146;11.516;2024-03-23T07:44:33;13.17;70.70
68378;DHT22;55322;48.146;11.516;2024-03-23T07:47:02;12.84;74.08
68378;DHT22;55322;48.146;11.516;2024-03-23T07:49:27;12.46;76.04
68378;DHT22;55322;48.146;11.516;2024-03-23T07:51:53;12.12;76.34
68378;DHT22;55322;48.146;11.516;2024-03-23T07:54:18;11.95;76.65
68378;DHT22;55322;48.146;11.516;2024-03-23T07:56:44;11.85;77.22
68378;DHT22;55322;48.146;11.516;2024-03-23T07:59:09;11.63;78.73
68378;DHT22;55322;48.146;11.516;2024-03-23T08:01:35;11.50;79.43
68378;DHT22;55322;48.146;11.516;2024-03-23T08:04:00;11.35;80.23
68378;DHT22;55322;48.146;11.516;2024-03-23T08:06:26;11.24;81.66
68378;DHT22;55322;48.146;11.516;2024-03-23T08:08:57;11.13;82.74
68378;DHT22;55322;48.146;11.516;2024-03-23T08:11:30;10.92;83.20
68378;DHT22;55322;48.146;11.516;2024-03-23T08:13:56;10.86;84.97
68378;DHT22;55322;48.146;11.516;2024-03-23T08:16:22;10.76;85.14
68378;DHT22;55322;48.146;11.516;2024-03-23T08:18:47;10.69;86.05
68378;DHT22;55322;48.146;11.516;2024-03-23T08:21:13;10.56;86.46
68378;DHT22;55322;48.146;11.516;2024-03-23T08:23:39;10.56;86.48
68378;DHT22;55322;48.146;11.516;2024-03-23T08:26:09;10.44;87.67
68378;DHT22;55322;48.146;11.516;2024-03-23T08:28:35;10.29;88.79
68378;DHT22;55322;48.146;11.516;2024-03-23T08:31:06;10.04;90.36
68378;DHT22;55322;48.146;11.516;2024-03-23T08:33:32;9.80;90.14
68378;DHT22;55322;48.146;11.516;2024-03-23T08:35:59;9.65;89.26
68378;DHT22;55322;48.146;11.516;2024-03-23T08:38:25;9.50;89.27
68378;DHT22;55322;48.146;11.516;2024-03-23T08:41:05;9.37;89.75
68378;DHT22;55322;48.146;11.516;2024-03-23T08:43:31;9.27;89.93
68378;DHT22;55322;48.146;11.516;2024-03-23T08:46:04;9.13;90.05
68378;DHT22;55322;48.146;11.516;2024-03-23T08:48:31;9.16;89.93
68378;DHT22;55322;48.146;11.516;2024-03-23T08:51:06;9.12;89.82
68378;DHT22;55322;48.146;11.516;2024-03-23T08:53:33;9.10;90.31
68378;DHT22;55322;48.146;11.516;2024-03-23T08:55:59;9.10;90.48
68378;DHT22;55322;48.146;11.516;2024-03-23T08:58:27;9.02;90.77
68378;DHT22;55322;48.146;11.516;2024-03-23T09:00:53;9.03;90.64
68378;DHT22;55322;48.146;11.516;2024-03-23T09:03:24;9.02;90.92
68378;DHT22;55322;48.146;11.516;2024-03-23T09:05:50;8.96;91.44
68378;DHT22;55322;48.146;11.516;2024-03-23T09:08:16;8.95;91.63
68378;DHT22;55322;48.146;11.516;2024-03-23T09:10:42;8.95;92.10
68378;DHT22;55322;48.146;11.516;2024-03-23T09:13:08;8.96;92.13
68378;DHT22;55322;48.146;11.516;2024-03-23T09:15:35;8.98;92.02
68378;DHT22;55322;48.146;11.516;2024-03-23T09:18:01;9.05;92.23
68378;DHT22;55322;48.146;11.516;2024-03-23T09:20:26;9.05;92.02
68378;DHT22;55322;48.146;11.516;2024-03-23T09:22:52;9.09;92.02
68378;DHT22;55322;48.146;11.516;2024-03-23T09:25:17;9.05;92.16
68378;DHT22;55322;48.146;11.516;2024-03-23T09:27:46;9.02;91.72
68378;DHT22;55322;48.146;11.516;2024-03-23T09:30:12;9.05;92.32
68378;DHT22;55322;48.146;11.516;2024-03-23T09:32:37;8.99;91.73
68378;DHT22;55322;48.146;11.516;2024-03-23T09:35:04;9.06;91.73
68378;DHT22;55322;48.146;11.516;2024-03-23T09:37:29;9.09;91.31
68378;DHT22;55322;48.146;11.516;2024-03-23T09:39:55;9.15;90.11
68378;DHT22;55322;48.146;11.516;2024-03-23T09:42:20;8.96;89.03
68378;DHT22;55322;48.146;11.516;2024-03-23T09:44:47;8.92;88.52
68378;DHT22;55322;48.146;11.516;2024-03-23T09:47:14;8.88;87.29
68378;DHT22;55322;48.146;11.516;2024-03-23T09:49:40;8.85;87.76
68378;DHT22;55322;48.146;11.516;2024-03-23T09:52:05;8.79;87.53
68378;DHT22;55322;48.146;11.516;2024-03-23T09:54:32;8.75;87.39
68378;DHT22;55322;48.146;11.516;2024-03-23T09:56:58;8.65;87.38
68378;DHT22;55322;48.146;11.516;2024-03-23T09:59:23;8.52;87.42
68378;DHT22;55322;48.146;11.516;2024-03-23T10:01:52;8.44;87.30
68378;DHT22;55322;48.146;11.516;2024-03-23T10:04:40;8.35;87.10
68378;DHT22;55322;48.146;11.516;2024-03-23T10:07:13;8.18;84.49
68378;DHT22;55322;48.146;11.516;2024-03-23T10:09:39;8.03;86.06
68378;DHT22;55322;48.146;11.516;2024-03-23T10:12:15;8.10;85.20
68378;DHT22;55322;48.146;11.516;2024-03-23T10:14:41;8.07;86.31
68378;DHT22;55322;48.146;11.516;2024-03-23T10:19:40;8.05;88.23
68378;DHT22;55322;48.146;11.516;2024-03-23T10:22:06;8.08;89.76
68378;DHT22;55322;48.146;11.516;2024-03-23T10:24:32;8.13;89.64
68378;DHT22;55322;48.146;11.516;2024-03-23T10:26:58;8.17;89.50
68378;DHT22;55322;48.146;11.516;2024-03-23T10:29:23;8.28;89.86
68378;DHT22;55322;48.146;11.516;2024-03-23T10:31:51;8.31;89.46
68378;DHT22;55322;48.146;11.516;2024-03-23T10:34:16;8.31;88.82
68378;DHT22;55322;48.146;11.516;2024-03-23T10:36:50;8.30;89.06
68378;DHT22;55322;48.146;11.516;2024-03-23T10:39:17;8.34;88.81
68378;DHT22;55322;48.146;11.516;2024-03-23T10:41:44;8.34;87.75
68378;DHT22;55322;48.146;11.516;2024-03-23T10:44:11;8.31;87.24
68378;DHT22;55322;48.146;11.516;2024-03-23T10:46:37;8.18;84.89
68378;DHT22;55322;48.146;11.516;2024-03-23T10:49:03;8.14;84.24
68378;DHT22;55322;48.146;11.516;2024-03-23T10:51:29;7.97;83.26
68378;DHT22;55322;48.146;11.516;2024-03-23T10:53:55;7.95;84.62
68378;DHT22;55322;48.146;11.516;2024-03-23T10:56:22;7.94;83.79
68378;DHT22;55322;48.146;11.516;2024-03-23T10:58:48;7.97;84.10
68378;DHT22;55322;48.146;11.516;2024-03-23T11:01:15;8.03;83.99
68378;DHT22;55322;48.146;11.516;2024-03-23T11:03:52;8.08;83.56
68378;DHT22;55322;48.146;11.516;2024-03-23T11:06:37;8.00;83.56
68378;DHT22;55322;48.146;11.516;2024-03-23T11:09:03;8.07;83.22
68378;DHT22;55322;48.146;11.516;2024-03-23T11:11:28;8.07;83.20
68378;DHT22;55322;48.146;11.516;2024-03-23T11:13:57;8.04;83.69
68378;DHT22;55322;48.146;11.516;2024-03-23T11:16:27;8.07;83.43
68378;DHT22;55322;48.146;11.516;2024-03-23T11:19:34;8.07;83.94
68378;DHT22;55322;48.146;11.516;2024-03-23T11:22:02;8.15;84.21
68378;DHT22;55322;48.146;11.516;2024-03-23T11:24:27;8.13;83.58
68378;DHT22;55322;48.146;11.516;2024-03-23T11:26:53;8.23;83.89
68378;DHT22;55322;48.146;11.516;2024-03-23T11:29:18;8.20;84.46
68378;DHT22;55322;48.146;11.516;2024-03-23T11:31:50;8.23;83.23
68378;DHT22;55322;48.146;11.516;2024-03-23T11:34:20;8.24;83.25
68378;DHT22;55322;48.146;11.516;2024-03-23T11:36:46;8.34;83.45
68378;DHT22;55322;48.146;11.516;2024-03-23T11:39:18;8.28;83.98
68378;DHT22;55322;48.146;11.516;2024-03-23T11:44:20;8.47;83.09
68378;DHT22;55322;48.146;11.516;2024-03-23T11:46:46;8.49;83.21
68378;DHT22;55322;48.146;11.516;2024-03-23T11:49:28;8.62;84.19
68378;DHT22;55322;48.146;11.516;2024-03-23T11:51:56;8.75;83.88
68378;DHT22;55322;48.146;11.516;2024-03-23T11:54:24;8.85;82.70
68378;DHT22;55322;48.146;11.516;2024-03-23T11:57:00;8.82;80.72
68378;DHT22;55322;48.146;11.516;2024-03-23T11:59:38;8.99;81.99
68378;DHT22;55322;48.146;11.516;2024-03-23T12:02:12;8.93;81.16
68378;DHT22;55322;48.146;11.516;2024-03-23T12:04:42;8.80;82.63
68378;DHT22;55322;48.146;11.516;2024-03-23T12:07:15;8.65;82.53
68378;DHT22;55322;48.146;11.516;2024-03-23T12:09:41;8.47;82.96
68378;DHT22;55322;48.146;11.516;2024-03-23T12:12:13;8.40;80.03
68378;DHT22;55322;48.146;11.516;2024-03-23T12:14:40;8.28;77.11
68378;DHT22;55322;48.146;11.516;2024-03-23T12:17:13;8.24;75.96
68378;DHT22;55322;48.146;11.516;2024-03-23T12:19:41;8.23;74.67
68378;DHT22;55322;48.146;11.516;2024-03-23T12:22:10;8.33;74.64
68378;DHT22;55322;48.146;11.516;2024-03-23T12:24:35;8.38;74.20
68378;DHT22;55322;48.146;11.516;2024-03-23T12:29:29;8.45;70.08
68378;DHT22;55322;48.146;11.516;2024-03-23T12:31:54;8.47;71.57
68378;DHT22;55322;48.146;11.516;2024-03-23T12:34:21;8.58;71.81
68378;DHT22;55322;48.146;11.516;2024-03-23T12:36:46;8.76;70.54
68378;DHT22;55322;48.146;11.516;2024-03-23T12:39:12;8.79;72.09
68378;DHT22;55322;48.146;11.516;2024-03-23T12:41:37;8.82;70.93
68378;DHT22;55322;48.146;11.516;2024-03-23T12:44:02;8.95;71.26
68378;DHT22;55322;48.146;11.516;2024-03-23T12:46:28;9.05;70.82
68378;DHT22;55322;48.146;11.516;2024-03-23T12:48:53;9.15;71.96
68378;DHT22;55322;48.146;11.516;2024-03-23T12:51:19;9.08;70.03
68378;DHT22;55322;48.146;11.516;2024-03-23T12:53:44;8.98;71.08
68378;DHT22;55322;48.146;11.516;2024-03-23T12:56:13;9.10;71.78
68378;DHT22;55322;48.146;11.516;2024-03-23T12:58:38;9.27;71.64
68378;DHT22;55322;48.146;11.516;2024-03-23T13:01:03;9.43;71.22
68378;DHT22;55322;48.146;11.516;2024-03-23T13:03:31;9.53;70.32
68378;DHT22;55322;48.146;11.516;2024-03-23T13:05:56;9.51;68.92
68378;DHT22;55322;48.146;11.516;2024-03-23T13:08:22;9.57;69.03
68378;DHT22;55322;48.146;11.516;2024-03-23T13:10:51;9.65;69.15
68378;DHT22;55322;48.146;11.516;2024-03-23T13:13:17;9.60;69.10
68378;DHT22;55322;48.146;11.516;2024-03-23T13:15:42;9.69;66.76
68378;DHT22;55322;48.146;11.516;2024-03-23T13:18:15;9.63;65.74
68378;DHT22;55322;48.146;11.516;2024-03-23T13:20:40;9.57;63.84
68378;DHT22;55322;48.146;11.516;2024-03-23T13:23:05;9.54;65.40
68378;DHT22;55322;48.146;11.516;2024-03-23T13:25:31;9.51;64.20
68378;DHT22;55322;48.146;11.516;2024-03-23T13:27:56;9.43;65.11
68378;DHT22;55322;48.146;11.516;2024-03-23T13:30:22;9.48;65.83
68378;DHT22;55322;48.146;11.516;2024-03-23T13:32:47;9.40;65.69
68378;DHT22;55322;48.146;11.516;2024-03-23T13:35:13;9.33;65.80
68378;DHT22;55322;48.146;11.516;2024-03-23T13:37:38;9.36;66.35
68378;DHT22;55322;48.146;11.516;2024-03-23T13:40:04;9.32;64.90
68378;DHT22;55322;48.146;11.516;2024-03-23T13:42:31;9.32;63.96
68378;DHT22;55322;48.146;11.516;2024-03-23T13:44:56;9.29;65.99
68378;DHT22;55322;48.146;11.516;2024-03-23T13:47:21;9.24;66.27
68378;DHT22;55322;48.146;11.516;2024-03-23T13:49:47;9.00;67.96
68378;DHT22;55322;48.146;11.516;2024-03-23T13:52:14;8.76;69.87
68378;DHT22;55322;48.146;11.516;2024-03-23T13:54:39;8.33;72.30
68378;DHT22;55322;48.146;11.516;2024-03-23T13:57:10;7.77;74.14
68378;DHT22;55322;48.146;11.516;2024-03-23T13:59:36;7.14;79.48
68378;DHT22;55322;48.146;11.516;2024-03-23T14:02:01;6.70;81.32
68378;DHT22;55322;48.146;11.516;2024-03-23T14:04:27;6.57;83.54
68378;DHT22;55322;48.146;11.516;2024-03-23T14:06:53;6.57;84.58
68378;DHT22;55322;48.146;11.516;2024-03-23T14:09:19;6.58;83.84
68378;DHT22;55322;48.146;11.516;2024-03-23T14:11:48;6.61;84.14
68378;DHT22;55322;48.146;11.516;2024-03-23T14:14:13;6.63;84.88
68378;DHT22;55322;48.146;11.516;2024-03-23T14:16:42;6.68;85.45
68378;DHT22;55322;48.146;11.516;2024-03-23T14:19:08;6.73;85.98
68378;DHT22;55322;48.146;11.516;2024-03-23T14:21:33;6.74;84.68
68378;DHT22;55322;48.146;11.516;2024-03-23T14:24:02;6.80;84.76
68378;DHT22;55322;48.146;11.516;2024-03-23T14:26:27;6.85;83.50
68378;DHT22;55322;48.146;11.516;2024-03-23T14:28:53;6.88;83.65
68378;DHT22;55322;48.146;11.516;2024-03-23T14:31:18;6.92;84.07
68378;DHT22;55322;48.146;11.516;2024-03-23T14:33:44;6.94;82.66
68378;DHT22;55322;48.146;11.516;2024-03-23T14:36:16;6.97;79.69
68378;DHT22;55322;48.146;11.516;2024-03-23T14:38:42;6.84;75.57
68378;DHT22;55322;48.146;11.516;2024-03-23T14:41:12;6.88;73.88
68378;DHT22;55322;48.146;11.516;2024-03-23T14:43:37;6.85;74.25
68378;DHT22;55322;48.146;11.516;2024-03-23T14:46:16;6.83;76.01
68378;DHT22;55322;48.146;11.516;2024-03-23T14:48:43;6.80;75.04
68378;DHT22;55322;48.146;11.516;2024-03-23T14:51:10;6.74;73.36
68378;DHT22;55322;48.146;11.516;2024-03-23T14:53:37;6.71;73.96
68378;DHT22;55322;48.146;11.516;2024-03-23T14:56:06;6.71;72.57
68378;DHT22;55322;48.146;11.516;2024-03-23T14:58:31;6.73;70.76
68378;DHT22;55322;48.146;11.516;2024-03-23T15:01:04;6.77;71.47
68378;DHT22;55322;48.146;11.516;2024-03-23T15:03:29;6.70;71.05
68378;DHT22;55322;48.146;11.516;2024-03-23T15:05:56;6.67;73.62
68378;DHT22;55322;48.146;11.516;2024-03-23T15:08:22;6.61;74.78
68378;DHT22;55322;48.146;11.516;2024-03-23T15:10:48;6.43;76.42
68378;DHT22;55322;48.146;11.516;2024-03-23T15:13:14;6.36;78.97
68378;DHT22;55322;48.146;11.516;2024-03-23T15:15:40;6.14;79.28
68378;DHT22;55322;48.146;11.516;2024-03-23T15:18:12;6.06;80.18
68378;DHT22;55322;48.146;11.516;2024-03-23T15:20:52;6.02;80.63
68378;DHT22;55322;48.146;11.516;2024-03-23T15:23:17;5.93;80.75
68378;DHT22;55322;48.146;11.516;2024-03-23T15:25:43;5.98;81.69
68378;DHT22;55322;48.146;11.516;2024-03-23T15:28:09;6.13;81.88
68378;DHT22;55322;48.146;11.516;2024-03-23T15:30:35;6.17;81.20
68378;DHT22;55322;48.146;11.516;2024-03-23T15:33:00;6.23;81.21
68378;DHT22;55322;48.146;11.516;2024-03-23T15:35:25;6.26;80.58
68378;DHT22;55322;48.146;11.516;2024-03-23T15:37:51;6.37;81.58
68378;DHT22;55322;48.146;11.516;2024-03-23T15:40:17;6.41;81.79
68378;DHT22;55322;48.146;11.516;2024-03-23T15:42:43;6.47;81.05
68378;DHT22;55322;48.146;11.516;2024-03-23T15:45:08;6.38;81.31
68378;DHT22;55322;48.146;11.516;2024-03-23T15:47:35;6.27;80.30
68378;DHT22;55322;48.146;11.516;2024-03-23T15:50:01;6.44;80.58
68378;DHT22;55322;48.146;11.516;2024-03-23T15:52:28;6.68;81.14
68378;DHT22;55322;48.146;11.516;2024-03-23T15:54:54;6.75;81.74
68378;DHT22;55322;48.146;11.516;2024-03-23T15:57:21;6.85;81.51
68378;DHT22;55322;48.146;11.516;2024-03-23T15:59:47;6.80;80.61
68378;DHT22;55322;48.146;11.516;2024-03-23T16:02:12;6.73;81.01
68378;DHT22;55322;48.146;11.516;2024-03-23T16:04:38;6.70;80.62
68378;DHT22;55322;48.146;11.516;2024-03-23T16:07:03;6.70;80.79
68378;DHT22;55322;48.146;11.516;2024-03-23T16:09:28;6.60;80.12
68378;DHT22;55322;48.146;11.516;2024-03-23T16:11:54;6.55;80.98
68378;DHT22;55322;48.146;11.516;2024-03-23T16:14:20;6.54;80.38
68378;DHT22;55322;48.146;11.516;2024-03-23T16:16:45;6.47;80.85
68378;DHT22;55322;48.146;11.516;2024-03-23T16:19:11;6.45;81.30
68378;DHT22;55322;48.146;11.516;2024-03-23T16:21:37;6.51;80.92
68378;DHT22;55322;48.146;11.516;2024-03-23T16:24:03;6.45;80.07